Time;durP1;ratioP1;P1;durP2;ratioP2;P2;SDS_P1;SDS_P2;PMS_P1;PMS_P2;Temp;Humidity;BMP_temperature;BMP_pressure;BME280_temperature;BME280_humidity;BME280_pressure;Samples;Min_cycle;Max_cycle;Signal;HPM_P1;HPM_P2
2023/01/26 00:01:32;;;;;;;105.00;45.45;;;;;;;-2.02;100.00;102529.59;5027262;28;20064;-56
2023/01/26 00:03:57;;;;;;;113.22;45.15;;;;;;;-1.99;100.00;102524.41;5032012;28;20035;-58
2023/01/26 00:06:23;;;;;;;115.25;46.70;;;;;;;-1.98;100.00;102517.44;5031732;28;20049;-58
2023/01/26 00:08:54;;;;;;;109.28;47.85;;;;;;;-2.03;100.00;102512.25;5025625;28;20175;-58
2023/01/26 00:11:28;;;;;;;105.10;43.08;;;;;;;-2.01;100.00;102514.84;5030907;28;20029;-56
2023/01/26 00:13:58;;;;;;;111.95;45.88;;;;;;;-2.02;100.00;102505.28;5031571;28;20030;-59
2023/01/26 00:16:24;;;;;;;113.15;46.75;;;;;;;-2.03;100.00;102506.16;5024851;28;20030;-58
2023/01/26 00:18:49;;;;;;;111.85;46.40;;;;;;;-2.01;100.00;102504.44;5031637;28;20112;-58
2023/01/26 00:21:18;;;;;;;107.03;44.50;;;;;;;-2.00;100.00;102499.22;5030238;28;20076;-55
2023/01/26 00:23:44;;;;;;;106.63;45.83;;;;;;;-2.00;100.00;102499.22;5035186;28;20104;-57
2023/01/26 00:26:12;;;;;;;102.72;44.15;;;;;;;-2.02;100.00;102498.34;5035725;28;20472;-58
2023/01/26 00:28:38;;;;;;;102.35;43.50;;;;;;;-2.05;100.00;102494.03;5035594;28;20017;-57
2023/01/26 00:31:05;;;;;;;96.65;42.63;;;;;;;-2.07;100.00;102487.06;5034418;28;20025;-58
2023/01/26 00:33:31;;;;;;;102.10;42.75;;;;;;;-2.03;100.00;102493.13;5034990;28;20032;-58
2023/01/26 00:35:57;;;;;;;100.38;43.30;;;;;;;-2.02;100.00;102487.06;5035813;28;20029;-56
2023/01/26 00:38:22;;;;;;;103.55;44.72;;;;;;;-2.05;100.00;102483.59;5034440;28;20029;-57
2023/01/26 00:40:47;;;;;;;97.95;41.97;;;;;;;-2.04;100.00;102481.84;5035667;28;20029;-57
2023/01/26 00:43:13;;;;;;;99.00;43.05;;;;;;;-2.05;100.00;102485.31;5033210;28;20054;-58
2023/01/26 00:45:38;;;;;;;96.40;42.10;;;;;;;-2.05;100.00;102474.91;5035694;28;20518;-54
2023/01/26 00:48:04;;;;;;;92.38;41.67;;;;;;;-2.03;100.00;102478.41;5035267;28;20033;-58
2023/01/26 00:50:30;;;;;;;92.53;41.47;;;;;;;-2.02;100.00;102472.31;5035206;28;20052;-58
2023/01/26 00:52:55;;;;;;;90.05;42.80;;;;;;;-1.99;100.00;102471.47;5024148;28;20121;-58
2023/01/26 00:55:20;;;;;;;91.50;41.88;;;;;;;-1.99;100.00;102469.72;5035094;28;20053;-57
2023/01/26 00:57:46;;;;;;;85.95;40.88;;;;;;;-1.97;100.00;102467.13;5035031;28;20029;-57
2023/01/26 01:00:15;;;;;;;85.15;40.45;;;;;;;-1.99;100.00;102455.84;5033335;28;20104;-59
2023/01/26 01:02:40;;;;;;;;;;;;;;;-1.94;100.00;102454.09;5035279;28;20140;-57
2023/01/26 01:05:06;;;;;;;83.90;38.13;;;;;;;-1.99;100.00;102458.44;5035124;28;20373;-57
2023/01/26 01:07:31;;;;;;;86.82;39.05;;;;;;;-2.00;100.00;102454.94;5033587;28;20033;-57
2023/01/26 01:09:59;;;;;;;89.97;39.88;;;;;;;-1.99;100.00;102459.31;5035201;28;20051;-57
2023/01/26 01:12:24;;;;;;;86.95;39.75;;;;;;;-1.98;100.00;102448.03;5034679;28;20061;-58
2023/01/26 01:14:49;;;;;;;85.65;39.90;;;;;;;-1.98;100.00;102442.81;5033546;28;20080;-56
2023/01/26 01:17:15;;;;;;;88.10;41.28;;;;;;;-1.97;100.00;102448.88;5034552;28;20053;-55
2023/01/26 01:19:40;;;;;;;87.05;39.25;;;;;;;-1.97;100.00;102452.34;5034006;28;20037;-57
2023/01/26 01:22:05;;;;;;;86.70;38.67;;;;;;;-1.97;100.00;102460.16;5030559;28;20104;-57
2023/01/26 01:24:33;;;;;;;88.70;40.10;;;;;;;-1.94;100.00;102459.31;5034749;28;20121;-56
2023/01/26 01:26:58;;;;;;;80.35;38.28;;;;;;;-1.91;100.00;102457.56;5027852;28;20542;-58
2023/01/26 01:29:23;;;;;;;90.22;40.63;;;;;;;-1.89;100.00;102449.78;5034825;28;20033;-58
2023/01/26 01:31:49;;;;;;;87.28;41.90;;;;;;;-1.86;100.00;102449.78;5034368;28;20025;-57
2023/01/26 01:34:14;;;;;;;79.95;38.03;;;;;;;-1.84;100.00;102442.81;5028767;28;20502;-58
2023/01/26 01:36:39;;;;;;;85.05;40.28;;;;;;;-1.83;100.00;102443.69;5034282;28;20056;-58
2023/01/26 01:39:05;;;;;;;82.95;39.45;;;;;;;-1.84;100.00;102445.44;5034271;28;20014;-57
2023/01/26 01:41:30;;;;;;;84.35;39.88;;;;;;;-1.84;100.00;102444.56;5025407;28;20092;-57
2023/01/26 01:44:12;;;;;;;85.40;39.97;;;;;;;-1.83;100.00;102456.72;5034285;28;20103;-58
2023/01/26 01:46:40;;;;;;;81.43;39.47;;;;;;;-1.86;100.00;102448.03;5032018;28;20083;-58
2023/01/26 01:49:16;;;;;;;82.40;38.28;;;;;;;-1.83;100.00;102452.38;5025588;28;20025;-58
2023/01/26 01:51:53;;;;;;;76.78;37.72;;;;;;;-1.84;100.00;102450.63;5033744;28;20100;-58
2023/01/26 01:54:27;;;;;;;78.85;36.97;;;;;;;-1.82;100.00;102448.91;5034666;28;20597;-58
2023/01/26 01:56:56;;;;;;;83.10;37.80;;;;;;;-1.81;100.00;102455.00;5022832;28;20025;-58
2023/01/26 01:59:23;;;;;;;81.93;37.70;;;;;;;-1.80;100.00;102454.09;5034242;28;20476;-58
2023/01/26 02:01:50;;;;;;;76.28;36.13;;;;;;;-1.81;100.00;102453.25;5034167;28;20357;-58
2023/01/26 02:04:18;;;;;;;79.93;36.38;;;;;;;-1.79;100.00;102448.91;5027458;28;20052;-58
2023/01/26 02:06:51;;;;;;;82.18;37.45;;;;;;;-1.77;100.00;102435.88;5035199;28;20030;-59
2023/01/26 02:12:10;;;;;;;82.72;37.35;;;;;;;-1.80;100.00;102435.88;5034250;28;20039;-58
2023/01/26 02:14:35;;;;;;;75.63;36.28;;;;;;;-1.76;100.00;102440.25;5027728;28;20033;-58
2023/01/26 02:17:00;;;;;;;78.85;35.88;;;;;;;-1.77;100.00;102430.69;5035218;28;20032;-58
2023/01/26 02:19:50;;;;;;;75.95;37.20;;;;;;;-1.78;100.00;102424.59;5028463;28;20072;-58
2023/01/26 02:22:33;;;;;;;82.85;39.53;;;;;;;-1.75;100.00;102418.50;5030641;28;20028;-58
2023/01/26 02:25:06;;;;;;;79.85;36.67;;;;;;;-1.73;100.00;102422.00;5031680;28;20120;-57
2023/01/26 02:27:31;;;;;;;73.78;34.83;;;;;;;-1.73;100.00;102419.41;5030296;28;20108;-58
2023/01/26 02:29:59;;;;;;;74.63;35.92;;;;;;;-1.75;100.00;102414.19;5032979;28;20100;-58
2023/01/26 02:32:24;;;;;;;77.47;35.85;;;;;;;-1.76;100.00;102422.88;5033320;28;20036;-58
2023/01/26 02:34:56;;;;;;;80.25;36.25;;;;;;;-1.76;100.00;102415.06;5031322;28;20033;-57
2023/01/26 02:37:22;;;;;;;79.63;37.72;;;;;;;-1.76;100.00;102416.78;5033371;28;20026;-58
2023/01/26 02:40:09;;;;;;;79.20;35.75;;;;;;;-1.74;100.00;102415.91;5030225;28;20033;-58
2023/01/26 02:42:38;;;;;;;76.82;36.47;;;;;;;-1.71;100.00;102417.66;5028834;28;20057;-59
2023/01/26 02:45:05;;;;;;;76.18;36.22;;;;;;;-1.69;100.00;102418.53;5032167;28;20029;-58
2023/01/26 02:47:30;;;;;;;76.82;37.15;;;;;;;-1.70;100.00;102417.66;5026410;28;20036;-58
2023/01/26 02:49:57;;;;;;;76.28;36.65;;;;;;;-1.66;100.00;102415.06;5032338;28;20105;-59
2023/01/26 02:52:25;;;;;;;75.20;37.78;;;;;;;-1.66;100.00;102408.09;5032842;28;20379;-58
2023/01/26 02:57:35;;;;;;;68.97;35.13;;;;;;;-1.62;100.00;102411.56;5028626;28;20120;-58
2023/01/26 03:00:04;;;;;;;73.07;36.65;;;;;;;-1.60;100.00;102409.81;5037767;28;20104;-57
2023/01/26 03:02:29;;;;;;;71.65;35.58;;;;;;;-1.58;100.00;102406.38;5029139;28;20038;-58
2023/01/26 03:04:54;;;;;;;69.45;34.50;;;;;;;-1.57;100.00;102407.22;5034854;28;20017;-58
2023/01/26 03:07:19;;;;;;;75.20;36.00;;;;;;;-1.59;100.00;102402.00;5032982;28;20029;-59
2023/01/26 03:09:45;;;;;;;66.97;34.20;;;;;;;-1.58;100.00;102406.38;5032499;28;20030;-57
2023/01/26 03:12:10;;;;;;;71.50;35.38;;;;;;;-1.57;100.00;102405.47;5022104;28;20430;-57
2023/01/26 03:14:35;;;;;;;73.32;34.20;;;;;;;-1.56;100.00;102407.22;5032313;28;20083;-58
2023/01/26 03:17:01;;;;;;;66.55;33.15;;;;;;;-1.55;100.00;102408.09;5032564;28;20013;-57
2023/01/26 03:27:57;;;;;;;71.78;33.72;;;;;;;-1.46;100.00;102402.88;4990910;28;20528;-58
2023/01/26 03:30:23;;;;;;;69.35;33.92;;;;;;;-1.45;100.00;102398.53;5014885;28;20029;-59
2023/01/26 03:32:48;;;;;;;69.78;33.55;;;;;;;-1.43;100.00;102395.06;5037735;28;20026;-59
2023/01/26 03:35:21;;;;;;;70.82;34.65;;;;;;;-1.41;100.00;102395.06;5032219;28;20113;-57
2023/01/26 03:37:53;;;;;;;73.13;35.30;;;;;;;-1.41;100.00;102401.13;5028954;28;20029;-58
2023/01/26 03:56:48;;;;;;;65.13;31.80;;;;;;;-1.27;100.00;102395.03;5037889;28;21869;-59
2023/01/26 03:59:14;;;;;;;60.60;31.48;;;;;;;-1.27;100.00;102390.66;5032088;28;20097;-59
2023/01/26 04:09:56;;;;;;;60.15;29.88;;;;;;;-1.23;100.00;102381.97;5031757;28;20483;-59
2023/01/26 04:12:22;;;;;;;60.70;29.77;;;;;;;-1.23;100.00;102387.19;5023271;28;20034;-59
2023/01/26 04:22:59;;;;;;;54.58;27.45;;;;;;;-1.21;100.00;102381.97;5020617;28;20095;-59
2023/01/26 04:25:24;;;;;;;50.67;27.30;;;;;;;-1.20;100.00;102391.50;5032015;28;20430;-59
2023/01/26 04:27:49;;;;;;;55.08;26.08;;;;;;;-1.17;100.00;102386.28;5031692;28;20021;-60
2023/01/26 04:30:15;;;;;;;55.55;25.35;;;;;;;-1.18;100.00;102379.38;5010612;28;20057;-59
2023/01/26 04:32:41;;;;;;;49.45;24.30;;;;;;;-1.17;100.00;102381.09;5030345;28;20029;-60
2023/01/26 04:35:07;;;;;;;55.38;27.38;;;;;;;-1.17;100.00;102383.69;5031730;28;20072;-59
2023/01/26 04:37:33;;;;;;;48.80;25.75;;;;;;;-1.15;100.00;102388.03;5031522;28;20399;-59
2023/01/26 04:39:59;;;;;;;49.50;25.05;;;;;;;-1.12;100.00;102388.03;5022945;28;20018;-59
2023/01/26 04:42:24;;;;;;;50.58;25.83;;;;;;;-1.10;100.00;102380.19;5028127;28;20506;-59
2023/01/26 04:44:53;;;;;;;46.08;23.67;;;;;;;-1.07;100.00;102384.53;5032065;28;20021;-60
2023/01/26 04:47:19;;;;;;;50.08;25.00;;;;;;;-1.04;100.00;102388.00;5026710;28;20030;-58
2023/01/26 04:49:45;;;;;;;46.75;24.17;;;;;;;-1.03;100.00;102381.91;5031264;28;20036;-61
2023/01/26 04:52:10;;;;;;;45.13;23.25;;;;;;;-1.01;100.00;102385.38;5028517;28;20014;-59
2023/01/26 04:54:35;;;;;;;47.88;22.90;;;;;;;-0.99;100.00;102383.63;5031575;28;20029;-59
2023/01/26 04:57:01;;;;;;;48.97;23.67;;;;;;;-0.98;100.00;102389.72;5020925;28;20036;-59
2023/01/26 04:59:26;;;;;;;45.38;22.92;;;;;;;-0.99;100.00;102377.56;5040780;28;20489;-60
2023/01/26 05:01:51;;;;;;;45.25;22.02;;;;;;;-0.96;100.00;102385.38;5019336;28;20032;-59
2023/01/26 05:04:16;;;;;;;41.50;22.75;;;;;;;-0.94;100.00;102384.47;5031687;28;20036;-60
2023/01/26 05:06:42;;;;;;;48.92;22.80;;;;;;;-0.93;100.00;102383.63;5031394;28;20025;-64
2023/01/26 05:09:07;;;;;;;44.42;21.15;;;;;;;-0.91;100.00;102383.59;5033754;28;20134;-59
2023/01/26 05:11:33;;;;;;;43.08;22.35;;;;;;;-0.91;100.00;102381.00;5032755;28;20112;-60
2023/01/26 05:13:58;;;;;;;42.33;23.30;;;;;;;-0.91;100.00;102382.75;5033949;28;20040;-61
2023/01/26 05:16:24;;;;;;;44.25;23.02;;;;;;;-0.93;100.00;102375.78;5034260;28;20471;-59
2023/01/26 05:18:49;;;;;;;44.92;22.77;;;;;;;-0.90;100.00;102380.09;5038489;28;20053;-60
2023/01/26 05:21:15;;;;;;;44.28;22.45;;;;;;;-0.90;100.00;102377.50;5034972;28;20403;-59
2023/01/26 05:23:40;;;;;;;43.55;21.38;;;;;;;-0.89;100.00;102381.00;5034919;28;20030;-59
2023/01/26 05:26:06;;;;;;;45.00;23.33;;;;;;;-0.89;100.00;102379.25;5031540;28;20033;-59
2023/01/26 05:28:33;;;;;;;40.50;21.13;;;;;;;-0.86;100.00;102375.78;5034697;28;20031;-60
2023/01/26 05:30:59;;;;;;;42.60;21.15;;;;;;;-0.85;100.00;102378.38;5036443;28;20107;-60
2023/01/26 05:33:24;;;;;;;45.58;22.25;;;;;;;-0.84;100.00;102380.09;5027043;28;20503;-60
2023/01/26 05:35:51;;;;;;;41.67;21.30;;;;;;;-0.83;100.00;102387.06;5033043;28;20038;-61
2023/01/26 05:38:17;;;;;;;41.88;20.92;;;;;;;-0.82;100.00;102387.91;5034993;28;20032;-60
2023/01/26 05:40:43;;;;;;;43.85;21.75;;;;;;;-0.81;100.00;102387.91;5031277;28;20034;-60
2023/01/26 05:43:09;;;;;;;42.78;20.60;;;;;;;-0.80;100.00;102388.75;5034107;28;20132;-60
2023/01/26 05:45:35;;;;;;;42.85;21.95;;;;;;;-0.81;100.00;102376.63;5034220;28;20441;-60
2023/01/26 05:48:00;;;;;;;42.65;21.40;;;;;;;-0.80;100.00;102386.16;5034285;28;20104;-61
2023/01/26 05:50:26;;;;;;;40.95;21.02;;;;;;;-0.80;100.00;102389.66;5028098;28;20407;-60
2023/01/26 05:52:51;;;;;;;43.53;21.45;;;;;;;-0.79;100.00;102388.75;5033946;28;20463;-61
2023/01/26 05:55:16;;;;;;;44.63;20.45;;;;;;;-0.78;100.00;102387.91;5033932;28;20033;-60
2023/01/26 05:57:42;;;;;;;37.50;19.02;;;;;;;-0.76;100.00;102391.34;5035411;28;20033;-60
2023/01/26 06:00:08;;;;;;;38.75;19.73;;;;;;;-0.76;100.00;102387.91;5033847;28;20025;-60
2023/01/26 06:02:33;;;;;;;37.75;20.35;;;;;;;-0.75;100.00;102392.22;5034031;28;20112;-60
2023/01/26 06:04:59;;;;;;;35.95;19.67;;;;;;;-0.74;100.00;102393.97;5032941;28;20100;-60
2023/01/26 06:07:25;;;;;;;41.20;20.45;;;;;;;-0.73;100.00;102392.22;5033979;28;20041;-59
2023/01/26 06:09:51;;;;;;;40.97;21.08;;;;;;;-0.74;100.00;102388.75;5033957;28;20475;-60
2023/01/26 06:12:18;;;;;;;39.72;20.25;;;;;;;-0.75;100.00;102397.44;5029902;28;20037;-59
2023/01/26 06:14:43;;;;;;;41.22;20.80;;;;;;;-0.74;100.00;102404.41;5033838;28;21110;-59
2023/01/26 06:17:08;;;;;;;37.80;19.15;;;;;;;-0.74;100.00;102396.56;5033587;28;20057;-60
2023/01/26 06:19:35;;;;;;;38.70;18.83;;;;;;;-0.73;100.00;102400.94;5021861;28;20034;-60
2023/01/26 06:22:00;;;;;;;40.28;20.35;;;;;;;-0.73;100.00;102406.16;5033229;28;20022;-59
2023/01/26 06:24:26;;;;;;;38.80;19.20;;;;;;;-0.72;100.00;102410.47;5023991;28;20041;-59
2023/01/26 06:26:51;;;;;;;39.15;20.25;;;;;;;-0.71;100.00;102404.41;5033733;28;20071;-60
2023/01/26 06:29:16;;;;;;;33.92;18.05;;;;;;;-0.69;100.00;102407.00;5033541;28;20131;-60
2023/01/26 06:31:41;;;;;;;38.40;18.67;;;;;;;-0.67;100.00;102398.28;5033415;28;20029;-60
2023/01/26 06:34:07;;;;;;;35.90;17.95;;;;;;;-0.67;100.00;102398.28;5031007;28;20083;-59
2023/01/26 06:36:33;;;;;;;35.88;17.55;;;;;;;-0.66;100.00;102409.59;5033727;28;20390;-60
2023/01/26 06:38:58;;;;;;;33.28;18.08;;;;;;;-0.67;100.00;102408.72;5031940;28;20079;-59
2023/01/26 06:41:24;;;;;;;35.42;18.20;;;;;;;-0.65;100.00;102411.31;5033513;28;20499;-59
2023/01/26 06:43:49;;;;;;;34.13;18.23;;;;;;;-0.66;100.00;102407.00;5023870;28;20049;-59
2023/01/26 06:46:16;;;;;;;34.67;16.80;;;;;;;-0.66;100.00;102407.00;5033199;28;20047;-60
2023/01/26 06:48:41;;;;;;;35.40;17.30;;;;;;;-0.64;100.00;102415.66;5032889;28;20030;-59
2023/01/26 06:51:19;;;;;;;36.35;17.67;;;;;;;-0.63;100.00;102414.81;5031743;28;20075;-59
2023/01/26 06:53:55;;;;;;;31.63;17.30;;;;;;;-0.63;100.00;102409.59;5032359;28;20022;-60
2023/01/26 06:56:21;;;;;;;39.03;19.10;;;;;;;-0.64;100.00;102413.91;5015515;28;20108;-59
2023/01/26 06:58:47;;;;;;;33.80;17.10;;;;;;;-0.65;100.00;102411.31;5022228;28;20051;-60
2023/01/26 07:01:24;;;;;;;34.58;18.58;;;;;;;-0.62;100.00;102416.53;5033445;28;20479;-59
2023/01/26 07:03:54;;;;;;;34.67;17.08;;;;;;;-0.65;100.00;102408.69;5032326;28;20390;-60
2023/01/26 07:06:20;;;;;;;34.35;18.25;;;;;;;-0.62;100.00;102419.13;5032236;28;20303;-59
2023/01/26 07:08:45;;;;;;;37.97;17.92;;;;;;;-0.64;100.00;102413.91;5029011;28;20033;-59
2023/01/26 07:11:12;;;;;;;36.60;19.30;;;;;;;-0.63;100.00;102410.44;5021988;28;20034;-63
2023/01/26 07:13:38;;;;;;;36.25;18.50;;;;;;;-0.62;100.00;102412.16;5032072;28;20056;-67
2023/01/26 07:16:09;;;;;;;35.90;17.20;;;;;;;-0.61;100.00;102421.75;5023484;28;20041;-62
2023/01/26 07:18:36;;;;;;;38.65;18.95;;;;;;;-0.60;100.00;102420.88;5032271;28;20052;-62
2023/01/26 07:21:13;;;;;;;35.42;17.50;;;;;;;-0.58;100.00;102428.69;5020882;28;20030;-62
2023/01/26 07:23:38;;;;;;;35.67;17.58;;;;;;;-0.58;100.00;102426.94;5015210;28;20410;-62
2023/01/26 07:26:04;;;;;;;37.60;18.38;;;;;;;-0.57;100.00;102431.31;5031973;28;20049;-62
2023/01/26 07:28:29;;;;;;;38.08;18.17;;;;;;;-0.56;100.00;102427.81;5017398;28;20036;-63
2023/01/26 07:30:59;;;;;;;38.53;18.35;;;;;;;-0.54;100.00;102424.31;5029519;28;20038;-62
2023/01/26 07:33:24;;;;;;;37.03;18.50;;;;;;;-0.54;100.00;102426.94;5026792;28;20037;-63
2023/01/26 07:35:54;;;;;;;38.38;17.70;;;;;;;-0.53;100.00;102426.94;5030243;28;20052;-62
2023/01/26 07:38:20;;;;;;;39.55;17.60;;;;;;;-0.53;100.00;102429.53;5019398;28;20622;-62
2023/01/26 07:40:45;;;;;;;37.65;18.33;;;;;;;-0.51;100.00;102424.31;5017887;28;20068;-62
2023/01/26 07:43:10;;;;;;;36.97;18.48;;;;;;;-0.52;100.00;102420.81;5019954;28;20048;-62
2023/01/26 07:45:36;;;;;;;39.72;19.80;;;;;;;-0.51;100.00;102424.31;5018605;28;20033;-62
2023/01/26 07:48:01;;;;;;;46.38;19.85;;;;;;;-0.51;100.00;102432.16;5016384;28;20048;-62
2023/01/26 07:50:26;;;;;;;42.88;20.05;;;;;;;-0.51;100.00;102430.41;5017163;28;20530;-62
2023/01/26 07:52:52;;;;;;;37.00;18.67;;;;;;;-0.50;100.00;102437.38;5019186;28;20073;-62
2023/01/26 07:55:19;;;;;;;36.58;17.40;;;;;;;-0.50;100.00;102437.38;5016865;28;20046;-62
2023/01/26 07:57:47;;;;;;;39.30;19.08;;;;;;;-0.50;100.00;102432.16;5032041;28;20026;-62
2023/01/26 08:00:14;;;;;;;39.38;19.38;;;;;;;-0.48;100.00;102437.31;5027947;28;20095;-62
2023/01/26 08:02:39;;;;;;;46.97;20.40;;;;;;;-0.49;100.00;102449.53;5027827;28;20034;-62
2023/01/26 08:05:05;;;;;;;41.33;20.38;;;;;;;-0.48;100.00;102452.97;5026847;28;20060;-63
2023/01/26 08:07:30;;;;;;;41.17;18.00;;;;;;;-0.47;100.00;102449.50;5023461;28;20475;-63
2023/01/26 08:09:57;;;;;;;45.50;20.58;;;;;;;-0.48;100.00;102451.25;5025137;28;20022;-63
2023/01/26 08:12:23;;;;;;;40.17;19.83;;;;;;;-0.47;100.00;102446.91;5030957;28;20068;-63
2023/01/26 08:14:48;;;;;;;43.58;19.42;;;;;;;-0.46;100.00;102451.25;5025885;28;20045;-63
2023/01/26 08:17:16;;;;;;;42.78;19.48;;;;;;;-0.45;100.00;102452.97;5030573;28;20391;-66
2023/01/26 08:19:41;;;;;;;43.88;19.75;;;;;;;-0.45;100.00;102463.41;5029561;28;20088;-63
2023/01/26 08:22:06;;;;;;;46.40;20.90;;;;;;;-0.45;100.00;102458.19;5020909;28;20396;-63
2023/01/26 08:24:32;;;;;;;44.13;21.20;;;;;;;-0.45;100.00;102458.19;5029817;28;20049;-63
2023/01/26 08:26:57;;;;;;;48.75;20.77;;;;;;;-0.44;100.00;102466.03;5029325;28;20116;-64
2023/01/26 08:29:22;;;;;;;48.42;22.10;;;;;;;-0.44;100.00;102458.19;5027713;28;20489;-63
2023/01/26 08:31:47;;;;;;;46.05;20.88;;;;;;;-0.43;100.00;102457.31;5022081;28;20104;-62
2023/01/26 08:34:13;;;;;;;45.10;20.77;;;;;;;-0.43;100.00;102464.31;5029015;28;20060;-64
2023/01/26 08:36:38;;;;;;;46.50;21.00;;;;;;;-0.41;100.00;102463.41;5032120;28;20064;-63
2023/01/26 08:39:04;;;;;;;48.60;22.00;;;;;;;-0.39;100.00;102469.47;5024660;28;20080;-64
2023/01/26 08:41:30;;;;;;;43.33;20.50;;;;;;;-0.36;100.00;102460.78;5019623;28;20037;-64
2023/01/26 08:43:58;;;;;;;46.85;22.30;;;;;;;-0.37;100.00;102461.63;5022593;28;20120;-64
2023/01/26 08:46:25;;;;;;;46.50;21.23;;;;;;;-0.38;100.00;102463.41;5018105;28;20134;-64
2023/01/26 08:48:51;;;;;;;46.53;21.60;;;;;;;-0.36;100.00;102468.59;5020666;28;20029;-64
2023/01/26 08:51:16;;;;;;;44.95;21.25;;;;;;;-0.36;100.00;102471.22;5019881;28;20068;-64
2023/01/26 08:53:41;;;;;;;49.67;22.58;;;;;;;-0.35;100.00;102475.56;5015446;28;20523;-64
2023/01/26 08:56:10;;;;;;;46.72;21.15;;;;;;;-0.33;100.00;102472.94;5018842;28;20033;-64
2023/01/26 08:58:36;;;;;;;45.90;22.05;;;;;;;-0.33;100.00;102471.22;5024702;28;20017;-64
2023/01/26 09:01:06;;;;;;;46.25;20.50;;;;;;;-0.32;100.00;102478.16;5029916;28;20029;-64
2023/01/26 09:03:31;;;;;;;47.15;21.58;;;;;;;-0.29;100.00;102477.28;5034409;28;20364;-64
2023/01/26 09:06:01;;;;;;;45.25;21.30;;;;;;;-0.29;100.00;102466.84;5029969;28;20083;-64
2023/01/26 09:08:26;;;;;;;49.13;21.60;;;;;;;-0.27;100.00;102468.53;5034429;28;20072;-64
2023/01/26 09:10:51;;;;;;;51.25;23.05;;;;;;;-0.26;100.00;102474.66;5035068;28;20052;-64
2023/01/26 09:13:17;;;;;;;52.47;21.70;;;;;;;-0.26;100.00;102475.50;5036324;28;20060;-64
2023/01/26 09:15:42;;;;;;;45.75;21.67;;;;;;;-0.26;100.00;102472.91;5033195;28;20479;-64
2023/01/26 09:18:08;;;;;;;52.80;24.08;;;;;;;-0.24;100.00;102476.38;5034384;28;20036;-64
2023/01/26 09:20:33;;;;;;;54.35;23.33;;;;;;;-0.23;100.00;102470.28;5032679;28;20108;-64
2023/01/26 09:22:59;;;;;;;53.95;22.48;;;;;;;-0.23;100.00;102475.50;5023494;28;20120;-64
2023/01/26 09:25:24;;;;;;;55.45;23.55;;;;;;;-0.21;100.00;102476.34;5019516;28;20032;-64
2023/01/26 09:27:49;;;;;;;54.03;22.13;;;;;;;-0.16;100.00;102480.69;5025687;28;20427;-64
2023/01/26 09:30:15;;;;;;;51.67;21.08;;;;;;;-0.19;100.00;102474.59;5017423;28;20500;-64
2023/01/26 09:32:40;;;;;;;59.83;21.35;;;;;;;-0.16;100.00;102488.53;5020380;28;20025;-63
2023/01/26 09:35:10;;;;;;;54.05;22.42;;;;;;;-0.16;100.00;102486.78;5027445;28;20440;-63
2023/01/26 09:37:35;;;;;;;55.22;22.85;;;;;;;-0.15;100.00;102487.63;5018443;28;20514;-63
2023/01/26 09:40:01;;;;;;;52.88;21.52;;;;;;;-0.15;100.00;102488.53;5020620;28;20018;-63
2023/01/26 09:42:38;;;;;;;49.10;21.60;;;;;;;-0.13;100.00;102480.66;5021500;28;20471;-63
2023/01/26 09:45:12;;;;;;;52.88;22.35;;;;;;;-0.11;100.00;102482.41;5013888;28;20042;-63
2023/01/26 09:47:37;;;;;;;49.15;21.67;;;;;;;-0.12;100.00;102493.72;5019665;28;20032;-63
2023/01/26 09:50:11;;;;;;;53.03;21.77;;;;;;;-0.10;100.00;102485.88;5019017;28;20030;-63
2023/01/26 09:52:51;;;;;;;50.42;22.23;;;;;;;-0.11;100.00;102481.53;5032116;28;20288;-63
2023/01/26 09:55:20;;;;;;;54.05;21.08;;;;;;;-0.10;100.00;102486.75;5032010;28;20090;-64
2023/01/26 09:57:49;;;;;;;52.55;23.10;;;;;;;-0.08;100.00;102491.97;5033096;28;20029;-63
2023/01/26 10:00:35;;;;;;;52.80;21.40;;;;;;;-0.08;100.00;102485.00;5024030;28;20037;-63
2023/01/26 10:03:22;;;;;;;54.58;21.75;;;;;;;-0.03;100.00;102485.84;5032608;28;20037;-63
2023/01/26 10:06:27;;;;;;;52.22;20.05;;;;;;;-0.01;100.00;102489.31;5030141;28;20022;-63
2023/01/26 10:08:54;;;;;;;56.47;22.02;;;;;;;-0.02;100.00;102482.38;4971215;28;20489;-63
2023/01/26 10:11:31;;;;;;;51.72;22.85;;;;;;;0.02;100.00;102480.59;5021188;28;20095;-63
2023/01/26 10:14:04;;;;;;;53.22;23.00;;;;;;;0.03;100.00;102481.44;5032228;28;20124;-63
2023/01/26 10:16:32;;;;;;;51.38;21.35;;;;;;;0.03;100.00;102473.63;5026463;28;20033;-63
2023/01/26 10:19:25;;;;;;;55.47;21.85;;;;;;;0.06;100.00;102479.69;5030224;28;20364;-63
2023/01/26 10:21:53;;;;;;;56.15;22.42;;;;;;;0.07;100.00;102480.56;5019169;28;20022;-63
2023/01/26 10:24:21;;;;;;;62.80;23.02;;;;;;;0.08;100.00;102477.91;5030696;28;20037;-63
2023/01/26 10:26:48;;;;;;;65.70;25.05;;;;;;;0.11;100.00;102469.22;5029899;28;20105;-63
2023/01/26 10:29:16;;;;;;;50.80;22.60;;;;;;;0.12;100.00;102473.56;5030549;28;20372;-64
2023/01/26 10:31:43;;;;;;;58.00;24.17;;;;;;;0.15;100.00;102477.03;5027658;28;20092;-63
2023/01/26 10:34:23;;;;;;;63.55;23.55;;;;;;;0.18;100.00;102484.84;5031421;28;20530;-62
2023/01/26 10:36:49;;;;;;;53.92;21.55;;;;;;;0.21;100.00;102483.09;5010561;28;20030;-62
2023/01/26 10:39:16;;;;;;;59.55;23.52;;;;;;;0.23;100.00;102482.19;5031150;28;20032;-62
2023/01/26 10:42:02;;;;;;;62.13;23.67;;;;;;;0.28;100.00;102492.59;5026363;28;20028;-62
2023/01/26 10:44:35;;;;;;;61.17;24.23;;;;;;;0.31;100.00;102490.81;5026838;28;20037;-63
2023/01/26 10:47:18;;;;;;;69.68;25.05;;;;;;;0.35;100.00;102492.56;5028747;28;20040;-62
2023/01/26 10:49:44;;;;;;;64.25;24.65;;;;;;;0.37;100.00;102479.47;5029471;28;20034;-62
2023/01/26 10:52:16;;;;;;;61.78;24.38;;;;;;;0.40;100.00;102471.63;5026899;28;20029;-62
2023/01/26 10:54:43;;;;;;;70.72;25.25;;;;;;;0.43;100.00;102482.03;5027538;28;20029;-62
2023/01/26 10:57:26;;;;;;;70.68;26.02;;;;;;;0.47;100.00;102486.38;5013249;28;20022;-62
2023/01/26 10:59:59;;;;;;;67.25;23.95;;;;;;;0.51;100.00;102484.59;5015198;28;20030;-62
2023/01/26 11:02:29;;;;;;;71.40;24.13;;;;;;;0.54;100.00;102482.81;5012751;28;20022;-62
2023/01/26 11:05:06;;;;;;;74.35;25.58;;;;;;;0.60;100.00;102475.78;5015253;28;20041;-62
2023/01/26 11:07:44;;;;;;;75.28;25.63;;;;;;;0.66;100.00;102479.22;5012918;28;20033;-61
2023/01/26 11:10:29;;;;;;;73.20;23.95;;;;;;;0.71;100.00;102473.97;5015250;28;20034;-62
2023/01/26 11:13:15;;;;;;;81.05;26.75;;;;;;;0.78;100.00;102475.63;5031085;28;20070;-62
2023/01/26 11:15:43;;;;;;;81.70;25.85;;;;;;;0.85;100.00;102471.19;5016117;28;20079;-62
2023/01/26 11:18:17;;;;;;;91.32;26.63;;;;;;;0.94;100.00;102470.25;5033711;28;20112;-61
2023/01/26 11:21:10;;;;;;;75.88;24.48;;;;;;;0.99;100.00;102473.69;5029935;28;20163;-61
2023/01/26 11:24:02;;;;;;;77.25;26.00;;;;;;;1.06;100.00;102470.13;5024840;28;20041;-61
2023/01/26 11:26:48;;;;;;;82.65;25.80;;;;;;;1.14;100.00;102483.13;5030417;28;20033;-61
2023/01/26 11:29:16;;;;;;;82.20;26.25;;;;;;;1.21;100.00;102480.41;5025536;28;20038;-61
2023/01/26 11:31:55;;;;;;;93.05;28.92;;;;;;;1.27;100.00;102480.34;5030501;28;20076;-61
2023/01/26 11:34:42;;;;;;;90.75;26.23;;;;;;;1.37;100.00;102483.75;5027038;28;20047;-61
2023/01/26 11:37:40;;;;;;;84.30;25.92;;;;;;;1.45;100.00;102481.91;5012453;28;20091;-61
2023/01/26 11:40:24;;;;;;;96.97;27.27;;;;;;;1.58;100.00;102481.72;4997694;28;20061;-61
2023/01/26 11:43:14;;;;;;;96.80;28.77;;;;;;;1.66;100.00;102478.13;5028265;28;20033;-60
2023/01/26 11:46:01;;;;;;;95.65;27.52;;;;;;;1.78;100.00;102473.63;5018298;28;20251;-60
2023/01/26 11:48:32;;;;;;;99.18;29.25;;;;;;;1.86;100.00;102461.28;5024736;28;20480;-60
2023/01/26 11:51:13;;;;;;;91.70;27.55;;;;;;;1.96;100.00;102462.88;5030116;28;20032;-60
2023/01/26 11:53:56;;;;;;;87.40;26.33;;;;;;;2.08;100.00;102450.47;5018671;28;20022;-59
2023/01/26 11:56:34;;;;;;;91.13;25.90;;;;;;;2.17;100.00;102450.34;5017918;28;20045;-60